Time;durP1;ratioP1;P1;durP2;ratioP2;P2;SDS_P1;SDS_P2;PMS_P1;PMS_P2;Temp;Humidity;BMP_temperature;BMP_pressure;BME280_temperature;BME280_humidity;BME280_pressure;Samples;Min_cycle;Max_cycle;Signal;HPM_P1;HPM_P2
2022/02/16 00:00:19;;;;;;;0.50;0.50;;;;;;;3.06;68.53;96583.16;29371;299;64005;-61
2022/02/16 00:00:51;;;;;;;0.60;0.60;;;;;;;3.00;68.76;96581.47;29373;211;63009;-62
2022/02/16 00:01:22;;;;;;;0.60;0.60;;;;;;;2.96;68.99;96594.56;29373;272;63005;-59
2022/02/16 00:01:53;;;;;;;0.60;0.60;;;;;;;2.98;68.91;96588.94;29373;218;63009;-61
2022/02/16 00:02:24;;;;;;;0.77;0.75;;;;;;;3.03;68.81;96586.31;29371;238;64004;-57
2022/02/16 00:02:59;;;;;;;0.60;0.60;;;;;;;2.99;69.08;96585.22;29373;319;63009;-62
2022/02/16 00:03:31;;;;;;;0.60;0.60;;;;;;;3.04;68.96;96582.59;29373;229;63004;-64
2022/02/16 00:04:02;;;;;;;0.60;0.60;;;;;;;3.08;68.82;96581.03;29373;209;63009;-62
2022/02/16 00:04:34;;;;;;;0.60;0.60;;;;;;;3.07;69.12;96584.75;29373;302;63004;-64
2022/02/16 00:05:11;;;;;;;0.50;0.50;;;;;;;3.07;69.01;96579.41;29373;218;63008;-64
2022/02/16 00:05:42;;;;;;;0.50;0.50;;;;;;;3.06;68.94;96577.78;29373;198;63004;-64
2022/02/16 00:06:15;;;;;;;0.60;0.60;;;;;;;3.05;68.88;96576.16;29373;277;63009;-60
2022/02/16 00:06:47;;;;;;;0.60;0.60;;;;;;;3.05;68.94;96581.53;29374;256;63005;-60
2022/02/16 00:07:18;;;;;;;0.60;0.60;;;;;;;3.03;68.99;96580.97;29373;218;63009;-62
2022/02/16 00:07:49;;;;;;;0.60;0.60;;;;;;;3.00;69.23;96582.28;29394;216;64005;-61
2022/02/16 00:08:21;;;;;;;0.50;0.50;;;;;;;2.98;69.07;96584.41;29373;231;63009;-62
2022/02/16 00:08:52;;;;;;;0.60;0.60;;;;;;;2.95;68.97;96582.22;29373;232;63005;-65
2022/02/16 00:09:23;;;;;;;0.60;0.60;;;;;;;2.97;69.05;96576.59;29373;205;63009;-61
2022/02/16 00:09:55;;;;;;;0.60;0.60;;;;;;;2.96;69.11;96580.34;29373;199;63004;-60
2022/02/16 00:10:29;;;;;;;0.60;0.60;;;;;;;3.00;68.64;96576.91;29373;258;63009;-60
2022/02/16 00:11:00;;;;;;;0.60;0.60;;;;;;;2.99;69.16;96574.50;29373;213;63004;-60
2022/02/16 00:11:32;;;;;;;0.60;0.60;;;;;;;2.96;68.93;96585.72;29371;215;64009;-61
2022/02/16 00:12:05;;;;;;;0.60;0.60;;;;;;;2.93;69.35;96581.66;29373;227;63004;-62
2022/02/16 00:12:36;;;;;;;0.60;0.60;;;;;;;2.93;69.20;96580.84;29373;229;63009;-67
2022/02/16 00:13:09;;;;;;;0.60;0.60;;;;;;;2.96;69.31;96575.00;29371;218;64005;-64
2022/02/16 00:13:40;;;;;;;0.60;0.60;;;;;;;2.97;69.10;96581.97;29373;233;63009;-67
2022/02/16 00:14:11;;;;;;;0.60;0.60;;;;;;;3.04;69.15;96582.59;29373;254;63012;-58
2022/02/16 00:14:42;;;;;;;0.50;0.50;;;;;;;3.10;68.80;96576.22;29373;204;63009;-61
2022/02/16 00:15:15;;;;;;;0.60;0.60;;;;;;;3.12;68.68;96573.28;29373;208;63005;-59
2022/02/16 00:15:49;;;;;;;0.60;0.60;;;;;;;3.15;68.01;96573.56;29373;246;63009;-61
2022/02/16 00:16:21;;;;;;;3.75;3.62;;;;;;;3.14;68.58;96577.31;29373;233;63005;-60
2022/02/16 00:16:52;;;;;;;0.60;0.60;;;;;;;3.11;68.51;96569.00;29373;206;63009;-67
2022/02/16 00:17:23;;;;;;;0.60;0.60;;;;;;;3.14;68.20;96569.25;29371;227;64004;-60
2022/02/16 00:17:55;;;;;;;0.57;0.57;;;;;;;3.13;68.69;96569.50;29371;222;64009;-60
2022/02/16 00:18:26;;;;;;;0.60;0.60;;;;;;;3.09;68.67;96574.59;29373;300;63004;-60
2022/02/16 00:18:58;;;;;;;0.50;0.50;;;;;;;3.06;68.78;96576.97;29371;214;64009;-60
2022/02/16 00:19:29;;;;;;;0.60;0.60;;;;;;;3.01;68.95;96577.72;29373;203;63004;-59
2022/02/16 00:20:00;;;;;;;0.60;0.60;;;;;;;2.97;68.67;96579.28;29373;299;63008;-62
2022/02/16 00:20:33;;;;;;;0.50;0.50;;;;;;;2.96;69.46;96575.00;29371;209;64005;-61
2022/02/16 00:21:05;;;;;;;0.60;0.60;;;;;;;2.97;69.02;96587.31;29372;266;63009;-62
2022/02/16 00:21:37;;;;;;;0.60;0.60;;;;;;;2.92;69.42;96577.34;29373;288;63005;-60
2022/02/16 00:22:08;;;;;;;0.60;0.60;;;;;;;2.92;69.32;96584.59;29373;246;63009;-68
2022/02/16 00:22:39;;;;;;;0.60;0.60;;;;;;;2.96;69.26;96581.16;29373;219;63005;-60
2022/02/16 00:23:11;;;;;;;0.50;0.50;;;;;;;2.96;69.18;96585.72;29373;294;63009;-60
2022/02/16 00:23:42;;;;;;;0.60;0.60;;;;;;;2.90;69.71;96586.72;29373;202;63005;-64
2022/02/16 00:24:13;;;;;;;0.60;0.60;;;;;;;2.89;69.48;96582.41;29373;229;63015;-66
2022/02/16 00:24:45;;;;;;;0.60;0.60;;;;;;;2.90;69.77;96581.34;29373;222;63004;-61
2022/02/16 00:25:16;;;;;;;0.60;0.60;;;;;;;2.94;69.37;96593.19;29373;290;63004;-60
2022/02/16 00:25:47;;;;;;;0.75;0.75;;;;;;;3.03;69.06;96587.13;29371;208;64004;-62
2022/02/16 00:26:18;;;;;;;0.60;0.60;;;;;;;3.05;68.95;96584.19;29371;222;64009;-62
2022/02/16 00:26:49;;;;;;;0.60;0.60;;;;;;;3.03;69.33;96591.69;29373;202;63004;-59
2022/02/16 00:27:21;;;;;;;0.60;0.60;;;;;;;2.98;69.17;96583.59;29373;205;63008;-60
2022/02/16 00:27:55;;;;;;;0.52;0.52;;;;;;;2.97;69.48;96580.09;29373;199;63005;-62
2022/02/16 00:28:27;;;;;;;0.60;0.60;;;;;;;3.01;68.83;96580.41;29373;252;63009;-61
2022/02/16 00:28:58;;;;;;;0.60;0.60;;;;;;;2.98;69.45;96579.03;29372;218;63005;-60
2022/02/16 00:29:29;;;;;;;0.60;0.60;;;;;;;3.01;68.91;96577.72;29373;254;63009;-66
2022/02/16 00:30:03;;;;;;;0.50;0.50;;;;;;;2.99;69.02;96582.53;29373;199;63005;-66
2022/02/16 00:30:34;;;;;;;0.60;0.60;;;;;;;3.00;69.08;96579.59;29373;216;63009;-59
2022/02/16 00:31:09;;;;;;;0.50;0.50;;;;;;;2.98;69.04;96583.59;29371;197;64005;-61
2022/02/16 00:31:41;;;;;;;0.60;0.60;;;;;;;2.95;69.35;96578.72;29373;225;63009;-68
2022/02/16 00:32:15;;;;;;;0.60;0.60;;;;;;;2.92;69.92;96579.22;29373;212;63004;-59
2022/02/16 00:32:46;;;;;;;0.60;0.60;;;;;;;2.93;69.64;96580.84;29373;219;63009;-64
2022/02/16 00:33:18;;;;;;;0.50;0.50;;;;;;;2.95;69.89;96578.72;29373;267;63004;-59
2022/02/16 00:33:49;;;;;;;0.60;0.60;;;;;;;2.95;69.62;96578.72;29373;225;63009;-60
2022/02/16 00:34:21;;;;;;;0.60;0.60;;;;;;;2.98;69.53;96578.22;29373;253;63000;-60
2022/02/16 00:34:52;;;;;;;0.60;0.60;;;;;;;2.95;69.49;96573.38;29373;327;63004;-60
2022/02/16 00:35:23;;;;;;;0.60;0.60;;;;;;;2.91;69.86;96582.97;29371;291;64005;-64
2022/02/16 00:35:54;;;;;;;0.60;0.60;;;;;;;2.91;69.95;96582.97;29371;259;64009;-60
2022/02/16 00:36:25;;;;;;;0.60;0.60;;;;;;;2.90;69.90;96576.00;29373;205;63005;-59
2022/02/16 00:36:56;;;;;;;0.50;0.50;;;;;;;2.93;69.71;96576.31;29373;208;63009;-61
2022/02/16 00:37:29;;;;;;;1.33;1.33;;;;;;;2.95;69.68;96573.38;29373;267;63005;-59
2022/02/16 00:38:00;;;;;;;0.50;0.50;;;;;;;2.96;69.58;96575.78;29371;300;64009;-60
2022/02/16 00:38:31;;;;;;;0.50;0.50;;;;;;;2.98;69.62;96579.03;29373;222;63005;-61
2022/02/16 00:39:03;;;;;;;0.60;0.60;;;;;;;3.01;69.17;96572.38;29373;301;63009;-64
2022/02/16 00:39:34;;;;;;;0.60;0.60;;;;;;;3.06;69.23;96583.16;29373;286;63004;-60
2022/02/16 00:40:07;;;;;;;0.60;0.60;;;;;;;3.04;69.21;96577.22;29373;240;63009;-60
2022/02/16 00:40:38;;;;;;;0.60;0.60;;;;;;;3.04;69.43;96577.22;29373;216;63004;-59
2022/02/16 00:41:10;;;;;;;0.60;0.60;;;;;;;3.02;69.22;96582.03;29373;224;63009;-59
2022/02/16 00:41:41;;;;;;;0.60;0.60;;;;;;;2.98;69.42;96584.41;29373;212;63004;-63
2022/02/16 00:42:12;;;;;;;0.60;0.60;;;;;;;2.99;69.36;96585.22;29373;340;63008;-61
2022/02/16 00:42:43;;;;;;;0.60;0.60;;;;;;;2.99;69.76;96579.84;29373;239;63004;-61
2022/02/16 00:43:14;;;;;;;0.60;0.60;;;;;;;2.95;69.64;96582.22;29371;214;64009;-68
2022/02/16 00:43:46;;;;;;;0.50;0.50;;;;;;;2.95;70.09;96581.41;29373;265;63005;-64
2022/02/16 00:44:17;;;;;;;0.60;0.60;;;;;;;3.00;70.08;96589.50;29371;232;64009;-62
2022/02/16 00:44:48;;;;;;;0.60;0.60;;;;;;;3.00;69.66;96586.81;29373;286;63005;-65
2022/02/16 00:45:19;;;;;;;0.60;0.60;;;;;;;2.98;69.78;96583.59;29373;203;63021;-61
2022/02/16 00:45:51;;;;;;;0.55;0.55;;;;;;;3.00;69.95;96592.19;29373;256;63005;-60
2022/02/16 00:46:23;;;;;;;0.50;0.50;;;;;;;3.01;69.65;96583.09;29373;197;63009;-61
2022/02/16 00:46:54;;;;;;;0.50;0.50;;;;;;;3.01;69.88;96591.12;29373;197;63009;-60
2022/02/16 00:47:25;;;;;;;0.60;0.60;;;;;;;3.03;69.52;96586.31;29373;219;63009;-64
2022/02/16 00:47:57;;;;;;;0.60;0.60;;;;;;;3.07;69.41;96587.44;29371;231;64004;-67
2022/02/16 00:48:28;;;;;;;0.60;0.60;;;;;;;3.07;69.50;96582.09;29373;205;63009;-59
2022/02/16 00:48:59;;;;;;;0.50;0.50;;;;;;;3.04;69.42;96582.59;29373;221;63004;-61
2022/02/16 00:49:30;;;;;;;0.60;0.60;;;;;;;3.01;69.46;96580.41;29373;202;63008;-66
2022/02/16 00:50:03;;;;;;;0.60;0.60;;;;;;;3.06;69.28;96585.81;29373;234;63004;-64
2022/02/16 00:50:35;;;;;;;0.60;0.60;;;;;;;3.04;69.05;96582.59;29373;287;63009;-62
2022/02/16 00:51:07;;;;;;;0.60;0.60;;;;;;;3.03;69.89;96583.66;29373;291;63005;-64
2022/02/16 00:51:38;;;;;;;0.60;0.60;;;;;;;3.02;69.73;96584.72;29373;258;63009;-65
2022/02/16 00:52:09;;;;;;;0.80;0.80;;;;;;;3.01;69.92;96585.78;29373;197;63005;-64
2022/02/16 00:52:41;;;;;;;0.57;0.57;;;;;;;2.98;69.97;96584.41;29371;197;64009;-60
2022/02/16 00:53:12;;;;;;;0.60;0.60;;;;;;;3.00;69.96;96579.59;29373;307;63005;-67
2022/02/16 00:53:43;;;;;;;0.60;0.60;;;;;;;2.98;70.14;96578.22;29371;309;64023;-60
2022/02/16 00:54:15;;;;;;;0.60;0.60;;;;;;;2.97;69.95;96576.59;29371;317;64016;-64
2022/02/16 00:54:47;;;;;;;0.50;0.50;;;;;;;2.94;70.01;96575.25;29373;313;63009;-67
2022/02/16 00:55:19;;;;;;;0.60;0.60;;;;;;;2.97;69.95;96576.59;29371;243;64004;-60
2022/02/16 00:55:50;;;;;;;0.60;0.60;;;;;;;2.96;69.95;96581.16;29373;289;63009;-60
2022/02/16 00:56:21;;;;;;;0.50;0.50;;;;;;;2.96;69.86;96569.63;29373;202;63004;-61
2022/02/16 00:56:53;;;;;;;0.50;0.50;;;;;;;2.98;69.99;96567.50;29373;227;63009;-61
2022/02/16 00:57:24;;;;;;;0.50;0.50;;;;;;;3.03;70.01;96575.59;29373;225;63004;-64
2022/02/16 00:57:55;;;;;;;0.60;0.60;;;;;;;3.05;69.79;96572.66;29371;209;64009;-65
2022/02/16 00:58:27;;;;;;;0.60;0.60;;;;;;;3.05;70.04;96570.00;29373;248;63005;-61
2022/02/16 00:58:58;;;;;;;0.57;0.57;;;;;;;3.06;69.84;96569.75;29373;202;63009;-63
2022/02/16 00:59:30;;;;;;;0.50;0.50;;;;;;;3.05;70.29;96565.44;29373;337;63005;-60
2022/02/16 01:00:04;;;;;;;0.60;0.60;;;;;;;3.06;69.71;96572.41;29373;322;63009;-63
2022/02/16 01:00:36;;;;;;;0.60;0.60;;;;;;;3.08;69.91;96570.31;29373;286;63005;-65
2022/02/16 01:01:08;;;;;;;0.60;0.60;;;;;;;3.07;70.02;96559.81;29373;202;63016;-61
2022/02/16 01:01:41;;;;;;;0.50;0.50;;;;;;;3.10;69.74;96564.69;29371;212;64005;-61
2022/02/16 01:02:15;;;;;;;0.60;0.60;;;;;;;3.09;69.41;96563.87;29373;197;63013;-62
2022/02/16 01:02:46;;;;;;;0.60;0.60;;;;;;;3.12;69.37;96560.66;29373;280;63004;-66
2022/02/16 01:03:18;;;;;;;0.60;0.60;;;;;;;3.11;69.45;96563.63;29373;308;63009;-67
2022/02/16 01:03:50;;;;;;;0.60;0.60;;;;;;;3.11;69.79;96560.94;29373;297;63004;-62
2022/02/16 01:04:24;;;;;;;0.50;0.50;;;;;;;3.12;69.68;96555.31;29372;206;63009;-61
2022/02/16 01:04:55;;;;;;;0.60;0.60;;;;;;;3.15;69.87;96554.00;29373;222;63004;-62
2022/02/16 01:05:27;;;;;;;0.70;0.70;;;;;;;3.17;69.45;96550.00;29371;342;64009;-60
2022/02/16 01:05:58;;;;;;;0.60;0.60;;;;;;;3.13;70.04;96553.44;29372;340;63005;-61
2022/02/16 01:06:29;;;;;;;0.60;0.60;;;;;;;3.13;69.71;96548.87;29373;199;63009;-61
2022/02/16 01:07:01;;;;;;;0.50;0.50;;;;;;;3.18;69.38;96551.62;29373;202;63005;-61
2022/02/16 01:07:32;;;;;;;0.60;0.60;;;;;;;3.19;69.39;96547.87;29373;206;63009;-60
2022/02/16 01:08:10;;;;;;;0.60;0.60;;;;;;;3.17;69.68;96550.00;29373;232;63005;-62
2022/02/16 01:08:41;;;;;;;0.60;0.60;;;;;;;3.16;69.78;96548.37;29373;216;63009;-61
2022/02/16 01:09:13;;;;;;;0.60;0.60;;;;;;;3.15;69.82;96541.37;29373;211;63004;-60
2022/02/16 01:09:44;;;;;;;0.60;0.60;;;;;;;3.17;69.76;96547.31;29373;245;63009;-64
2022/02/16 01:10:16;;;;;;;0.60;0.60;;;;;;;3.18;69.88;96546.25;29373;286;63004;-63
2022/02/16 01:10:48;;;;;;;0.60;0.60;;;;;;;3.19;69.66;96547.06;29371;267;64000;-60
2022/02/16 01:11:21;;;;;;;0.60;0.60;;;;;;;3.17;69.98;96550.00;29373;218;63004;-60
2022/02/16 01:11:57;;;;;;;0.60;0.60;;;;;;;3.24;69.58;96545.25;29373;277;63008;-61
2022/02/16 01:12:28;;;;;;;0.60;0.60;;;;;;;3.23;69.55;96543.63;29373;230;63008;-63
2022/02/16 01:12:59;;;;;;;0.60;0.60;;;;;;;3.21;69.77;96540.37;29372;222;63009;-65
2022/02/16 01:13:31;;;;;;;0.60;0.60;;;;;;;3.27;69.38;96538.56;29373;293;63005;-64
2022/02/16 01:14:02;;;;;;;0.60;0.60;;;;;;;3.35;68.72;96541.59;29373;204;63009;-63
2022/02/16 01:14:38;;;;;;;0.60;0.60;;;;;;;3.34;68.63;96537.28;29371;198;64005;-60
2022/02/16 01:15:10;;;;;;;0.60;0.60;;;;;;;3.31;68.86;96545.03;29373;316;63009;-69
2022/02/16 01:15:41;;;;;;;0.60;0.60;;;;;;;3.33;69.33;96543.72;29373;196;63005;-66
2022/02/16 01:16:12;;;;;;;0.60;0.60;;;;;;;3.41;68.92;96534.41;29373;265;63009;-60
2022/02/16 01:16:44;;;;;;;0.60;0.60;;;;;;;3.46;68.88;96533.63;29373;209;63010;-61
2022/02/16 01:17:16;;;;;;;0.52;0.52;;;;;;;3.44;68.92;96544.62;29371;219;64009;-61
2022/02/16 01:17:47;;;;;;;0.50;0.50;;;;;;;3.43;68.96;96539.50;29373;219;63004;-67
2022/02/16 01:18:20;;;;;;;0.50;0.50;;;;;;;3.39;68.91;96543.75;29373;222;63009;-60
2022/02/16 01:18:52;;;;;;;0.50;0.50;;;;;;;3.39;68.95;96546.44;29373;338;63004;-64
2022/02/16 01:19:23;;;;;;;1.12;1.12;;;;;;;3.54;68.67;96543.88;29373;332;63008;-62
2022/02/16 01:19:54;;;;;;;0.50;0.50;;;;;;;3.57;68.56;96535.31;29373;220;63005;-59
2022/02/16 01:20:25;;;;;;;0.60;0.60;;;;;;;3.58;68.31;96540.41;29373;210;63009;-61
2022/02/16 01:20:57;;;;;;;0.50;0.50;;;;;;;3.55;68.69;96534.75;29373;304;63005;-64
2022/02/16 01:21:28;;;;;;;0.50;0.50;;;;;;;3.54;68.25;96533.13;29373;326;63009;-64
2022/02/16 01:21:59;;;;;;;0.60;0.60;;;;;;;3.51;68.47;96550.56;29373;328;63005;-62
2022/02/16 01:22:30;;;;;;;0.60;0.60;;;;;;;3.50;68.87;96534.72;29371;244;64009;-61
2022/02/16 01:23:01;;;;;;;0.60;0.60;;;;;;;3.45;68.68;96540.06;29373;208;63005;-62
2022/02/16 01:23:32;;;;;;;0.60;0.60;;;;;;;3.45;68.87;96543.56;29373;197;63009;-61
2022/02/16 01:24:07;;;;;;;0.50;0.50;;;;;;;3.49;69.05;96541.94;29373;353;63004;-61
2022/02/16 01:24:38;;;;;;;0.60;0.60;;;;;;;3.53;68.74;96539.56;29373;213;63018;-68
2022/02/16 01:25:10;;;;;;;0.50;0.50;;;;;;;3.51;68.72;96529.09;29373;227;63004;-60
2022/02/16 01:25:41;;;;;;;0.60;0.60;;;;;;;3.50;68.67;96553.50;29373;462;63009;-66
2022/02/16 01:26:12;;;;;;;0.60;0.60;;;;;;;3.56;68.83;96531.00;29373;202;63004;-60
2022/02/16 01:26:44;;;;;;;0.60;0.60;;;;;;;3.54;68.54;96531.28;29373;202;63008;-63
2022/02/16 01:27:15;;;;;;;0.50;0.50;;;;;;;3.55;68.71;96534.75;29373;272;63005;-63
2022/02/16 01:27:46;;;;;;;0.50;0.50;;;;;;;3.54;68.78;96533.13;29371;198;64009;-62
2022/02/16 01:28:17;;;;;;;0.50;0.50;;;;;;;3.53;68.81;96542.25;29373;202;63009;-68
2022/02/16 01:28:49;;;;;;;0.60;0.60;;;;;;;3.60;68.95;96529.44;29373;232;63009;-71
2022/02/16 01:29:23;;;;;;;0.50;0.50;;;;;;;3.64;68.43;96535.91;29373;283;63005;-61
2022/02/16 01:29:54;;;;;;;0.60;0.60;;;;;;;3.63;68.34;96534.28;29373;200;63009;-66
2022/02/16 01:30:26;;;;;;;0.50;0.50;;;;;;;3.58;68.87;96529.69;29373;320;63005;-71
2022/02/16 01:30:57;;;;;;;0.50;0.50;;;;;;;3.61;68.56;96525.69;29371;310;64009;-68
2022/02/16 01:31:28;;;;;;;0.57;0.57;;;;;;;3.59;68.45;96523.25;29373;224;63004;-60
2022/02/16 01:31:59;;;;;;;0.50;0.50;;;;;;;3.58;68.97;96528.88;29373;198;63009;-69
2022/02/16 01:32:31;;;;;;;0.50;0.50;;;;;;;3.56;68.83;96525.66;29373;288;63004;-60
2022/02/16 01:33:03;;;;;;;0.50;0.50;;;;;;;3.53;68.68;96531.53;29371;260;64009;-67
2022/02/16 01:33:35;;;;;;;0.60;0.60;;;;;;;3.53;68.93;96520.78;29373;263;63004;-61
2022/02/16 01:34:06;;;;;;;0.60;0.60;;;;;;;3.50;69.03;96518.63;29371;199;64008;-61
2022/02/16 01:34:37;;;;;;;0.60;0.60;;;;;;;3.46;69.29;96504.94;29373;310;63004;-62
2022/02/16 01:35:09;;;;;;;0.60;0.60;;;;;;;3.45;69.63;96526.66;29373;199;63009;-68
2022/02/16 01:35:40;;;;;;;0.52;0.52;;;;;;;3.49;69.03;96523.19;29373;199;63001;-65
2022/02/16 01:36:11;;;;;;;0.55;0.55;;;;;;;3.54;69.08;96522.41;29373;208;63009;-60
2022/02/16 01:36:42;;;;;;;0.70;0.70;;;;;;;3.54;69.42;96519.72;29373;270;63005;-59
2022/02/16 01:37:13;;;;;;;0.60;0.60;;;;;;;3.55;69.03;96513.31;29373;312;63009;-60
2022/02/16 01:37:48;;;;;;;0.60;0.60;;;;;;;3.58;68.98;96513.59;29373;249;63005;-67
2022/02/16 01:38:19;;;;;;;0.50;0.50;;;;;;;3.60;68.83;96511.47;29373;199;63009;-63
2022/02/16 01:38:50;;;;;;;0.60;0.60;;;;;;;3.66;68.49;96515.00;29373;222;63005;-61
2022/02/16 01:39:22;;;;;;;0.55;0.55;;;;;;;3.63;68.44;96499.41;29371;197;64009;-67
2022/02/16 01:39:56;;;;;;;0.50;0.50;;;;;;;3.64;68.69;96517.13;29373;231;63004;-67
2022/02/16 01:40:28;;;;;;;0.50;0.50;;;;;;;3.64;68.93;96506.41;29373;215;63009;-68
2022/02/16 01:40:59;;;;;;;0.50;0.50;;;;;;;3.61;68.95;96523.00;29373;228;63004;-66
2022/02/16 01:41:30;;;;;;;0.60;0.60;;;;;;;3.62;68.67;96508.53;29373;346;63008;-66
2022/02/16 01:42:03;;;;;;;0.60;0.60;;;;;;;3.65;68.70;96508.00;29373;223;63004;-66
2022/02/16 01:42:34;;;;;;;0.60;0.60;;;;;;;3.63;68.69;96502.91;29371;203;64009;-60
2022/02/16 01:43:05;;;;;;;0.60;0.60;;;;;;;3.67;68.78;96511.25;29373;246;63001;-60
2022/02/16 01:43:38;;;;;;;0.50;0.50;;;;;;;3.65;68.53;96508.81;29373;241;63005;-60
2022/02/16 01:44:09;;;;;;;0.60;0.60;;;;;;;3.65;68.60;96508.81;29373;349;63000;-61
2022/02/16 01:44:41;;;;;;;0.60;0.60;;;;;;;3.61;68.61;96505.03;29373;295;63009;-61
2022/02/16 01:45:12;;;;;;;0.60;0.60;;;;;;;3.57;68.70;96508.47;29373;196;63005;-60
2022/02/16 01:45:44;;;;;;;0.60;0.60;;;;;;;3.61;68.69;96514.97;29373;208;63005;-62
2022/02/16 01:46:16;;;;;;;0.50;0.50;;;;;;;3.58;69.00;96502.06;29373;221;63005;-62
2022/02/16 01:47:00;;;;;;;0.50;0.50;;;;;;;3.53;68.91;96502.81;29371;301;64009;-60
2022/02/16 01:47:31;;;;;;;0.60;0.60;;;;;;;3.51;69.26;96506.81;29373;204;63008;-61
2022/02/16 01:48:06;;;;;;;0.50;0.50;;;;;;;3.50;69.05;96505.22;29373;198;63009;-66
2022/02/16 01:48:37;;;;;;;0.60;0.60;;;;;;;3.47;69.33;96513.75;29373;289;63004;-59
2022/02/16 01:49:08;;;;;;;0.50;0.50;;;;;;;3.55;69.54;96503.37;29373;250;63008;-65
2022/02/16 01:49:40;;;;;;;0.95;0.95;;;;;;;3.65;68.88;96508.00;29373;218;63004;-62
2022/02/16 01:50:12;;;;;;;0.50;0.50;;;;;;;3.63;68.53;96504.78;29373;199;63009;-62
2022/02/16 01:50:43;;;;;;;0.50;0.50;;;;;;;3.60;68.92;96506.09;29373;203;63005;-59
2022/02/16 01:51:15;;;;;;;0.50;0.50;;;;;;;3.64;68.68;96501.03;29373;271;63009;-63
2022/02/16 01:51:49;;;;;;;0.50;0.50;;;;;;;3.67;68.74;96505.88;29373;329;63005;-61
2022/02/16 01:52:21;;;;;;;0.50;0.50;;;;;;;3.63;68.85;96504.78;29371;290;64009;-62
2022/02/16 01:52:52;;;;;;;0.50;0.50;;;;;;;3.59;68.90;96503.66;29373;358;63005;-61
2022/02/16 01:53:23;;;;;;;0.60;0.60;;;;;;;3.54;69.31;96509.00;29373;323;63009;-68
2022/02/16 01:53:54;;;;;;;0.60;0.60;;;;;;;3.49;69.44;96503.59;29372;215;63005;-60
2022/02/16 01:54:26;;;;;;;0.60;0.60;;;;;;;3.48;69.38;96501.97;29373;287;63013;-62
2022/02/16 01:54:57;;;;;;;0.60;0.60;;;;;;;3.46;69.75;96506.81;29373;219;63004;-61
2022/02/16 01:55:29;;;;;;;0.60;0.60;;;;;;;3.45;69.60;96502.50;29373;253;63009;-62
2022/02/16 01:56:04;;;;;;;0.55;0.55;;;;;;;3.44;69.81;96500.91;29373;202;63019;-62
2022/02/16 01:56:36;;;;;;;0.60;0.60;;;;;;;3.46;69.41;96504.13;29373;217;63008;-67
2022/02/16 01:57:11;;;;;;;0.60;0.60;;;;;;;3.46;69.64;96498.78;29371;231;64004;-61
2022/02/16 01:57:43;;;;;;;0.60;0.60;;;;;;;3.44;69.39;96500.91;29373;199;63009;-61
2022/02/16 01:58:16;;;;;;;0.60;0.60;;;;;;;3.41;69.97;96501.41;29373;200;63005;-60
2022/02/16 01:58:47;;;;;;;0.60;0.60;;;;;;;3.41;69.72;96488.81;29373;297;63009;-61
2022/02/16 01:59:21;;;;;;;0.60;0.60;;;;;;;3.40;69.82;96494.44;29373;332;63005;-67
2022/02/16 01:59:54;;;;;;;0.50;0.50;;;;;;;3.44;69.91;96495.53;29373;319;63009;-60
2022/02/16 02:00:25;;;;;;;0.60;0.60;;;;;;;3.44;69.49;96490.97;29371;360;64005;-62
2022/02/16 02:00:56;;;;;;;0.60;0.60;;;;;;;3.43;69.78;96488.56;29373;361;63009;-61
2022/02/16 02:01:27;;;;;;;0.60;0.60;;;;;;;3.41;70.00;96482.63;29373;356;63005;-60
2022/02/16 02:01:58;;;;;;;0.60;0.60;;;;;;;3.43;70.01;96480.50;29371;259;64009;-61
2022/02/16 02:02:30;;;;;;;0.50;0.50;;;;;;;3.43;70.05;96488.56;29373;332;63004;-57
2022/02/16 02:03:02;;;;;;;0.50;0.50;;;;;;;3.44;69.78;96474.88;29373;196;63009;-60
2022/02/16 02:03:34;;;;;;;0.50;0.50;;;;;;;3.46;69.72;96483.47;29372;196;63004;-61
2022/02/16 02:04:06;;;;;;;0.50;0.50;;;;;;;3.52;69.51;96473.56;29373;203;63009;-62
2022/02/16 02:04:37;;;;;;;0.60;0.60;;;;;;;3.59;69.35;96482.22;29373;240;63000;-60
2022/02/16 02:05:11;;;;;;;0.60;0.60;;;;;;;3.60;68.73;96468.53;29373;203;63009;-62
2022/02/16 02:05:44;;;;;;;0.55;0.55;;;;;;;3.62;69.27;96476.34;29373;346;63005;-62
2022/02/16 02:06:16;;;;;;;0.60;0.60;;;;;;;3.67;68.76;96468.31;29373;255;63009;-61
2022/02/16 02:06:47;;;;;;;0.60;0.60;;;;;;;3.68;68.51;96472.63;29373;278;63005;-66
2022/02/16 02:07:18;;;;;;;0.60;0.60;;;;;;;3.63;68.56;96469.91;29371;209;64009;-61
2022/02/16 02:07:50;;;;;;;0.50;0.50;;;;;;;3.57;69.08;96469.06;29373;197;63005;-60
2022/02/16 02:08:24;;;;;;;0.50;0.50;;;;;;;3.54;68.92;96469.56;29373;286;63009;-60
2022/02/16 02:08:55;;;;;;;0.50;0.50;;;;;;;3.50;69.17;96473.81;29373;202;63005;-65
2022/02/16 02:09:28;;;;;;;0.50;0.50;;;;;;;3.48;69.31;96472.47;29373;206;63004;-68
2022/02/16 02:10:01;;;;;;;0.50;0.50;;;;;;;3.45;69.74;96471.13;29373;198;63017;-61
2022/02/16 02:10:34;;;;;;;0.57;0.57;;;;;;;3.42;69.61;96465.47;29373;271;63009;-59
2022/02/16 02:11:05;;;;;;;0.50;0.50;;;;;;;3.40;69.86;96464.94;29373;273;63004;-61
2022/02/16 02:11:36;;;;;;;0.50;0.50;;;;;;;3.43;69.45;96461.72;29373;284;63009;-59
2022/02/16 02:12:08;;;;;;;0.60;0.60;;;;;;;3.43;69.67;96472.47;29373;314;63004;-62
2022/02/16 02:12:44;;;;;;;0.60;0.60;;;;;;;3.42;69.93;96465.47;29371;320;64009;-61
2022/02/16 02:13:17;;;;;;;0.60;0.60;;;;;;;3.38;69.93;96462.50;29373;202;63005;-61
2022/02/16 02:14:02;;;;;;;0.50;0.50;;;;;;;3.41;70.15;96469.22;29371;214;64009;-67
2022/02/16 02:14:33;;;;;;;0.60;0.60;;;;;;;3.42;69.87;96457.44;29373;243;63005;-62
2022/02/16 02:15:05;;;;;;;0.60;0.60;;;;;;;3.45;69.72;96465.78;29373;227;63009;-66
2022/02/16 02:15:36;;;;;;;0.60;0.60;;;;;;;3.49;69.62;96466.03;29373;202;63005;-60
2022/02/16 02:16:12;;;;;;;0.57;0.57;;;;;;;3.51;69.30;96462.03;29373;306;63019;-61
2022/02/16 02:16:43;;;;;;;0.50;0.50;;;;;;;3.50;69.21;96467.66;29373;202;63004;-61
2022/02/16 02:17:16;;;;;;;0.60;0.60;;;;;;;3.53;69.17;96457.22;29371;351;64009;-65
2022/02/16 02:17:47;;;;;;;0.60;0.60;;;;;;;3.54;69.50;96464.19;29373;350;63004;-62
2022/02/16 02:18:19;;;;;;;0.60;0.60;;;;;;;3.55;69.16;96462.34;29373;199;63009;-62
2022/02/16 02:18:50;;;;;;;0.60;0.60;;;;;;;3.52;69.10;96460.16;29373;196;63004;-60
2022/02/16 02:19:21;;;;;;;0.60;0.60;;;;;;;3.48;69.27;96459.06;29373;209;63008;-61
2022/02/16 02:19:52;;;;;;;0.60;0.60;;;;;;;3.46;69.42;96456.66;29373;293;63004;-62
2022/02/16 02:20:26;;;;;;;0.60;0.60;;;;;;;3.47;69.66;96454.75;29373;200;63009;-62
2022/02/16 02:20:58;;;;;;;0.57;0.57;;;;;;;3.44;69.69;96457.97;29373;304;63005;-61
2022/02/16 02:21:29;;;;;;;0.50;0.50;;;;;;;3.48;69.17;96451.00;29373;219;63009;-61
2022/02/16 02:22:00;;;;;;;0.60;0.60;;;;;;;3.48;69.36;96449.13;29373;231;63005;-60
2022/02/16 02:22:36;;;;;;;0.60;0.60;;;;;;;3.49;69.19;96447.25;29371;334;64009;-62
2022/02/16 02:23:12;;;;;;;0.50;0.50;;;;;;;3.49;69.35;96450.75;29373;218;63005;-62
2022/02/16 02:23:44;;;;;;;0.60;0.60;;;;;;;3.48;69.01;96449.13;29373;353;63014;-68
2022/02/16 02:24:16;;;;;;;0.60;0.60;;;;;;;3.51;68.96;96448.63;29373;204;63011;-62
2022/02/16 02:24:47;;;;;;;0.60;0.60;;;;;;;3.49;69.04;96450.75;29373;343;63009;-60
2022/02/16 02:25:20;;;;;;;0.60;0.60;;;;;;;3.47;69.22;96441.34;29373;281;63004;-61
2022/02/16 02:25:54;;;;;;;0.60;0.60;;;;;;;3.50;69.03;96440.84;29373;326;63009;-59
2022/02/16 02:26:27;;;;;;;0.60;0.60;;;;;;;3.53;69.19;96434.94;29373;328;63000;-61
2022/02/16 02:26:58;;;;;;;0.60;0.60;;;;;;;3.51;69.03;96440.56;29373;279;63009;-61
2022/02/16 02:27:29;;;;;;;0.50;0.50;;;;;;;3.50;68.90;96438.16;29373;236;63009;-66
2022/02/16 02:28:00;;;;;;;0.60;0.60;;;;;;;3.48;69.16;96433.03;29394;199;64009;-68
2022/02/16 02:28:32;;;;;;;0.60;0.60;;;;;;;3.46;69.31;96442.44;29373;217;63005;-62
2022/02/16 02:29:03;;;;;;;0.52;0.52;;;;;;;3.46;69.36;96442.44;29371;247;64009;-60
2022/02/16 02:29:39;;;;;;;0.60;0.60;;;;;;;3.47;69.53;96441.34;29373;216;63005;-60
2022/02/16 02:30:12;;;;;;;0.50;0.50;;;;;;;3.45;69.66;96430.91;29373;304;63017;-60
2022/02/16 02:30:53;;;;;;;0.60;0.60;;;;;;;3.44;69.67;96437.34;29372;226;63005;-66
2022/02/16 02:31:33;;;;;;;0.60;0.60;;;;;;;3.48;69.07;96427.69;29395;308;63009;-61
2022/02/16 02:32:05;;;;;;;0.60;0.60;;;;;;;3.47;69.21;96436.78;29395;267;63004;-66
2022/02/16 02:32:38;;;;;;;0.60;0.60;;;;;;;3.43;69.11;96437.59;29373;198;63016;-59
2022/02/16 02:33:09;;;;;;;0.60;0.60;;;;;;;3.40;69.31;96436.22;29373;236;63004;-61
2022/02/16 02:33:41;;;;;;;0.60;0.60;;;;;;;3.43;69.58;96434.91;29371;206;64008;-61
2022/02/16 02:34:12;;;;;;;0.50;0.50;;;;;;;3.42;69.47;96435.97;29373;213;63004;-60
2022/02/16 02:34:45;;;;;;;0.60;0.60;;;;;;;3.42;69.30;96438.66;29373;200;63009;-66